Time;durP1;ratioP1;P1;durP2;ratioP2;P2;SDS_P1;SDS_P2;PMS_P1;PMS_P2;Temp;Humidity;BMP_temperature;BMP_pressure;BME280_temperature;BME280_humidity;BME280_pressure;Samples;Min_cycle;Max_cycle;Signal;HPM_P1;HPM_P2
2022/07/13 00:00:26;;;;;;;7.70;3.88;;;;;;;19.30;100.00;101125.69;5056090;28;20047;-69
2022/07/13 00:02:53;;;;;;;5.20;3.47;;;;;;;19.27;100.00;101125.91;5036861;28;20054;-69
2022/07/13 00:05:19;;;;;;;7.03;3.63;;;;;;;19.17;100.00;101122.25;5030040;28;20136;-70
2022/07/13 00:07:44;;;;;;;4.25;3.10;;;;;;;19.09;100.00;101125.50;5037000;28;20041;-69
2022/07/13 00:10:10;;;;;;;9.23;3.50;;;;;;;18.96;100.00;101130.00;5043335;28;20038;-69
2022/07/13 00:12:35;;;;;;;6.20;3.28;;;;;;;18.95;100.00;101128.31;5038434;28;20029;-69
2022/07/13 00:15:01;;;;;;;6.32;3.65;;;;;;;18.93;100.00;101116.91;5024033;28;20815;-69
2022/07/13 00:17:26;;;;;;;5.95;3.38;;;;;;;18.90;100.00;101119.78;5046142;28;20041;-69
2022/07/13 00:19:52;;;;;;;6.00;3.85;;;;;;;18.83;100.00;101118.53;5032727;28;20753;-70
2022/07/13 00:22:17;;;;;;;7.03;4.00;;;;;;;18.79;100.00;101122.41;5048636;28;20085;-69
2022/07/13 00:24:42;;;;;;;5.07;3.70;;;;;;;18.71;100.00;101107.00;5032584;28;20028;-69
2022/07/13 00:27:08;;;;;;;6.10;3.63;;;;;;;18.77;100.00;101111.00;5056651;28;20461;-70
2022/07/13 00:29:33;;;;;;;6.97;4.18;;;;;;;18.72;100.00;101102.53;5055887;28;20090;-69
2022/07/13 00:31:58;;;;;;;5.18;3.75;;;;;;;18.69;100.00;101098.25;5025402;28;20060;-68
2022/07/13 00:34:24;;;;;;;6.63;3.72;;;;;;;18.65;100.00;101110.09;5037934;28;20997;-69
2022/07/13 00:36:49;;;;;;;10.05;4.53;;;;;;;18.28;100.00;101055.94;5029293;28;20109;-69
2022/07/13 00:39:15;;;;;;;5.47;3.97;;;;;;;18.53;100.00;101099.47;5039991;28;20614;-69
2022/07/13 00:41:47;;;;;;;5.85;4.03;;;;;;;18.52;100.00;101105.78;5023898;28;20906;-70
2022/07/13 00:44:13;;;;;;;6.57;3.90;;;;;;;18.56;100.00;101109.88;5042923;28;20037;-70
2022/07/13 00:46:43;;;;;;;6.13;4.63;;;;;;;18.44;100.00;101086.78;5030098;28;20146;-70
2022/07/13 00:49:10;;;;;;;5.70;3.92;;;;;;;18.59;100.00;101105.19;5033309;28;20025;-69
2022/07/13 00:51:35;;;;;;;8.45;4.60;;;;;;;18.58;100.00;101081.38;5039818;28;20067;-69
2022/07/13 00:54:01;;;;;;;5.22;4.53;;;;;;;18.59;100.00;101072.44;5032114;28;20028;-69
2022/07/13 00:56:27;;;;;;;9.68;5.00;;;;;;;18.67;100.00;101086.00;5046339;28;20936;-69
2022/07/13 00:58:52;;;;;;;5.75;4.60;;;;;;;18.61;100.00;101076.66;5054360;28;20857;-69
2022/07/13 01:01:18;;;;;;;6.40;4.50;;;;;;;18.59;100.00;101062.59;5043240;28;20047;-68
2022/07/13 01:03:43;;;;;;;5.95;4.22;;;;;;;18.61;100.00;101068.69;5041534;28;20872;-68
2022/07/13 01:06:10;;;;;;;7.68;4.65;;;;;;;18.57;100.00;101059.22;5048079;28;20464;-69
2022/07/13 01:08:36;;;;;;;6.22;4.22;;;;;;;18.64;100.00;101071.13;5032941;28;20846;-70
2022/07/13 01:11:01;;;;;;;7.13;4.60;;;;;;;18.60;100.00;101063.47;5026390;28;20032;-70
2022/07/13 01:13:27;;;;;;;7.13;4.10;;;;;;;18.69;100.00;101073.47;5053160;28;20028;-70
2022/07/13 01:15:53;;;;;;;6.25;4.13;;;;;;;18.70;100.00;101077.78;5047518;28;20169;-70
2022/07/13 01:18:18;;;;;;;6.40;4.80;;;;;;;18.73;100.00;101074.91;5051490;28;20024;-70
2022/07/13 01:20:44;;;;;;;9.13;4.32;;;;;;;18.59;100.00;101040.47;5046315;28;20036;-70
2022/07/13 01:23:11;;;;;;;6.72;3.90;;;;;;;18.63;100.00;101047.25;5038606;28;20728;-71
2022/07/13 01:25:37;;;;;;;6.20;4.20;;;;;;;18.72;100.00;101051.94;5046033;28;20032;-70
2022/07/13 01:28:02;;;;;;;5.95;3.85;;;;;;;18.68;100.00;101051.31;5030832;28;20035;-70
2022/07/13 01:30:28;;;;;;;7.68;4.25;;;;;;;18.37;100.00;101004.75;5037129;28;20044;-70
2022/07/13 01:32:53;;;;;;;6.95;4.55;;;;;;;18.72;100.00;101046.59;5049646;28;20029;-71
2022/07/13 01:35:21;;;;;;;7.78;3.97;;;;;;;18.67;100.00;101038.94;5020001;28;20044;-71
2022/07/13 01:37:46;;;;;;;6.32;3.83;;;;;;;18.75;100.00;101057.03;5083214;27;20388;-71
2022/07/13 01:40:12;;;;;;;5.28;3.75;;;;;;;18.63;100.00;101036.59;5033338;28;20539;-70
2022/07/13 01:42:43;;;;;;;7.28;4.60;;;;;;;18.81;100.00;101067.22;5047026;28;20067;-70
2022/07/13 01:45:09;;;;;;;10.20;4.60;;;;;;;18.84;100.00;101057.19;5030769;28;20082;-70
2022/07/13 01:47:39;;;;;;;6.10;4.18;;;;;;;18.83;100.00;101046.63;5030767;28;20037;-70
2022/07/13 01:50:05;;;;;;;8.40;4.47;;;;;;;18.86;100.00;101039.28;5028692;28;20910;-70
2022/07/13 01:52:31;;;;;;;6.15;3.53;;;;;;;18.91;100.00;101048.75;5027454;28;20886;-70
2022/07/13 01:54:56;;;;;;;7.80;4.00;;;;;;;18.90;100.00;101039.91;5035991;28;20040;-70
2022/07/13 01:57:21;;;;;;;5.50;4.03;;;;;;;18.86;100.00;101039.28;5036493;28;20039;-70
2022/07/13 01:59:47;;;;;;;8.43;4.60;;;;;;;18.93;100.00;101041.47;5041945;28;20066;-70
2022/07/13 02:02:12;;;;;;;5.78;4.13;;;;;;;18.92;100.00;101035.31;5034275;28;20035;-70
2022/07/13 02:04:38;;;;;;;5.85;3.90;;;;;;;18.93;100.00;101042.31;5029038;28;20808;-70
2022/07/13 02:07:03;;;;;;;6.97;4.45;;;;;;;18.93;100.00;101038.81;5050089;28;20033;-70
2022/07/13 02:09:28;;;;;;;5.65;3.55;;;;;;;18.88;100.00;101037.38;5042375;28;20022;-70
2022/07/13 02:11:54;;;;;;;8.75;3.78;;;;;;;18.75;100.00;101009.94;5036337;28;20918;-70
2022/07/13 02:14:19;;;;;;;7.18;3.80;;;;;;;18.90;100.00;101031.91;5043931;28;20035;-70
2022/07/13 02:16:45;;;;;;;5.93;4.03;;;;;;;18.86;100.00;101023.28;5048365;28;20029;-70
2022/07/13 02:19:10;;;;;;;6.28;4.20;;;;;;;18.80;100.00;101015.75;5041098;28;20982;-70
2022/07/13 02:21:36;;;;;;;4.43;3.35;;;;;;;18.80;100.00;101022.91;5034447;28;20100;-70
2022/07/13 02:24:01;;;;;;;7.68;4.35;;;;;;;18.73;100.00;101005.69;5055233;28;20043;-70
2022/07/13 02:26:26;;;;;;;6.32;3.78;;;;;;;18.86;100.00;101023.28;5059094;28;20036;-70
2022/07/13 02:28:52;;;;;;;6.45;4.43;;;;;;;18.83;100.00;101022.66;5037130;28;20875;-70
2022/07/13 02:31:18;;;;;;;6.72;4.13;;;;;;;18.78;100.00;101019.50;5037984;28;20029;-70
2022/07/13 02:33:44;;;;;;;7.97;4.13;;;;;;;18.53;100.00;100977.03;5058382;28;20147;-70
2022/07/13 02:36:09;;;;;;;11.55;3.28;;;;;;;18.77;100.00;101028.47;5032706;28;20070;-71
2022/07/13 02:38:34;;;;;;;5.72;3.95;;;;;;;18.71;100.00;101020.94;5031843;28;20024;-71
2022/07/13 02:41:00;;;;;;;4.72;3.67;;;;;;;18.62;100.00;101014.44;5056468;28;20878;-71
2022/07/13 02:43:25;;;;;;;6.13;4.25;;;;;;;18.62;100.00;101008.31;5030346;28;20139;-70
2022/07/13 02:45:51;;;;;;;5.60;3.72;;;;;;;18.64;100.00;101017.88;5052267;28;20055;-69
2022/07/13 02:48:18;;;;;;;6.93;4.05;;;;;;;18.56;100.00;101006.06;5034089;28;20029;-70
2022/07/13 02:50:43;;;;;;;6.65;4.18;;;;;;;18.60;100.00;101007.56;5048167;28;20040;-69
2022/07/13 02:53:09;;;;;;;6.75;4.20;;;;;;;18.58;100.00;101009.50;5039613;28;20047;-69
2022/07/13 02:55:34;;;;;;;9.00;4.30;;;;;;;18.60;100.00;101010.22;5038237;28;20036;-70
2022/07/13 02:58:00;;;;;;;6.90;5.18;;;;;;;18.47;100.00;100988.94;5050069;28;20024;-69
2022/07/13 03:00:26;;;;;;;9.75;7.20;;;;;;;18.62;100.00;101009.13;5033978;28;20029;-69
2022/07/13 03:02:51;;;;;;;14.55;7.20;;;;;;;18.63;100.00;101009.97;5037335;28;20775;-70
2022/07/13 03:05:17;;;;;;;9.57;6.63;;;;;;;18.62;100.00;100998.47;5040800;28;20098;-69
2022/07/13 03:07:42;;;;;;;9.68;6.22;;;;;;;18.56;100.00;100987.44;5038957;28;20796;-69
2022/07/13 03:10:08;;;;;;;8.02;5.97;;;;;;;18.64;100.00;100993.06;5041101;28;20031;-70
2022/07/13 03:12:34;;;;;;;7.38;4.47;;;;;;;18.63;100.00;100986.03;5032021;28;20025;-69
2022/07/13 03:14:59;;;;;;;9.27;5.35;;;;;;;18.62;100.00;100995.00;5030605;28;20074;-70
2022/07/13 03:17:24;;;;;;;8.63;5.07;;;;;;;18.68;100.00;101006.03;5047702;28;20848;-70
2022/07/13 03:19:50;;;;;;;10.95;5.43;;;;;;;18.68;100.00;100997.19;5045978;28;20077;-69
2022/07/13 03:22:15;;;;;;;6.30;4.70;;;;;;;18.71;100.00;100992.50;5029263;28;20025;-69
2022/07/13 03:24:41;;;;;;;8.25;5.25;;;;;;;18.79;100.00;100999.91;5034392;28;20067;-69
2022/07/13 03:27:06;;;;;;;9.80;4.93;;;;;;;18.70;100.00;100984.59;5043277;28;20494;-69
2022/07/13 03:29:31;;;;;;;7.38;4.03;;;;;;;18.74;100.00;100988.75;5034431;28;20024;-68
2022/07/13 03:31:57;;;;;;;9.43;4.40;;;;;;;18.81;100.00;100995.31;5039158;28;20040;-68
2022/07/13 03:34:22;;;;;;;6.82;4.55;;;;;;;18.83;100.00;100993.38;5057951;28;20040;-68
2022/07/13 03:36:48;;;;;;;9.82;4.72;;;;;;;18.77;100.00;100984.03;5061226;28;20024;-68
2022/07/13 03:39:13;;;;;;;6.95;4.18;;;;;;;18.67;100.00;100975.03;5057592;28;20029;-68
2022/07/13 03:41:39;;;;;;;6.75;4.00;;;;;;;18.68;100.00;100978.56;5050348;28;20048;-69
2022/07/13 03:44:04;;;;;;;8.27;4.32;;;;;;;18.87;100.00;101003.69;5039749;28;20032;-69
2022/07/13 03:46:30;;;;;;;8.10;5.10;;;;;;;18.85;100.00;100996.78;5042235;28;20078;-69
2022/07/13 03:48:55;;;;;;;8.25;4.18;;;;;;;18.84;100.00;100992.41;5057171;28;20028;-69
2022/07/13 03:51:21;;;;;;;11.73;4.45;;;;;;;18.87;100.00;101002.84;5060259;28;20449;-69
2022/07/13 03:53:46;;;;;;;6.28;4.38;;;;;;;18.73;100.00;100989.69;5049947;28;20041;-69
2022/07/13 03:56:11;;;;;;;5.10;4.28;;;;;;;18.84;100.00;101009.25;5031284;28;20852;-69
2022/07/13 03:58:37;;;;;;;5.55;4.15;;;;;;;18.78;100.00;100998.22;5031768;28;20561;-69
2022/07/13 04:01:02;;;;;;;5.85;4.18;;;;;;;18.81;100.00;101005.97;5025494;28;20033;-69
2022/07/13 04:03:28;;;;;;;7.20;3.83;;;;;;;18.70;100.00;100985.47;5028705;28;20795;-70
2022/07/13 04:05:53;;;;;;;9.75;4.57;;;;;;;18.80;100.00;100990.94;5036155;28;20913;-69
2022/07/13 04:08:18;;;;;;;8.48;4.10;;;;;;;18.79;100.00;100989.28;5029089;28;20938;-69
2022/07/13 04:10:44;;;;;;;14.43;4.38;;;;;;;18.82;100.00;100989.84;5029457;28;20151;-70
2022/07/13 04:13:09;;;;;;;7.18;4.40;;;;;;;18.81;100.00;100992.66;5031007;28;20201;-69
2022/07/13 04:15:35;;;;;;;8.05;4.60;;;;;;;18.70;100.00;100980.13;5032923;28;20563;-68
2022/07/13 04:18:00;;;;;;;6.70;3.55;;;;;;;18.67;100.00;100968.88;5035890;28;20527;-69
2022/07/13 04:20:26;;;;;;;6.63;3.67;;;;;;;18.79;100.00;100989.28;5031525;28;20530;-69
2022/07/13 04:22:51;;;;;;;5.90;3.80;;;;;;;18.80;100.00;100981.16;5024993;28;20056;-70
2022/07/13 04:25:16;;;;;;;7.43;3.28;;;;;;;18.89;100.00;101000.94;5029860;28;20130;-69
2022/07/13 04:27:42;;;;;;;5.50;3.42;;;;;;;18.81;100.00;100982.00;5016845;28;20079;-69
2022/07/13 04:30:08;;;;;;;5.05;3.20;;;;;;;18.85;100.00;100984.34;5017478;28;20032;-70
2022/07/13 04:32:33;;;;;;;5.50;3.22;;;;;;;18.90;100.00;100997.28;5020784;28;20127;-70
2022/07/13 04:34:59;;;;;;;5.45;3.53;;;;;;;18.85;100.00;100991.47;5032882;28;20811;-70
2022/07/13 04:37:24;;;;;;;6.53;3.72;;;;;;;18.83;100.00;100980.06;5032346;28;20143;-70
2022/07/13 04:39:49;;;;;;;8.40;4.05;;;;;;;18.91;100.00;100991.00;5029465;28;20929;-70
2022/07/13 04:42:15;;;;;;;5.20;3.38;;;;;;;18.85;100.00;100970.16;5031917;28;20114;-69
2022/07/13 04:44:40;;;;;;;5.60;3.40;;;;;;;18.88;100.00;100972.59;5018383;28;20024;-70
2022/07/13 04:47:05;;;;;;;8.48;3.38;;;;;;;18.97;100.00;100971.88;5048813;28;20933;-69
2022/07/13 04:49:31;;;;;;;7.07;3.38;;;;;;;19.06;100.00;100976.50;5052261;28;20036;-70
2022/07/13 04:51:56;;;;;;;7.03;2.72;;;;;;;19.06;100.00;100971.16;5049300;28;20033;-70
2022/07/13 04:54:22;;;;;;;6.50;3.55;;;;;;;19.18;100.00;100980.91;5069989;28;20028;-70
2022/07/13 04:56:48;;;;;;;10.50;3.45;;;;;;;19.25;100.00;100987.47;5061317;28;20057;-70
2022/07/13 04:59:14;;;;;;;4.90;3.17;;;;;;;19.26;100.00;100980.34;5055668;28;20032;-69
2022/07/13 05:01:41;;;;;;;8.18;4.13;;;;;;;19.37;100.00;100986.50;5058682;28;20407;-69
2022/07/13 05:04:06;;;;;;;10.10;3.72;;;;;;;19.30;100.00;100973.78;5028720;28;20036;-69
2022/07/13 05:06:32;;;;;;;7.97;3.95;;;;;;;19.34;100.00;100980.56;5044650;28;20033;-69
2022/07/13 05:08:57;;;;;;;6.25;3.47;;;;;;;19.27;100.00;100984.69;5063372;28;20040;-69
2022/07/13 05:11:23;;;;;;;7.60;3.50;;;;;;;19.20;100.00;100984.28;5073186;27;20403;-69
2022/07/13 05:13:49;;;;;;;6.55;3.60;;;;;;;19.02;100.00;100945.75;5038073;28;20029;-69
2022/07/13 05:16:14;;;;;;;6.57;3.70;;;;;;;19.06;100.00;100955.19;5052011;28;20576;-69
2022/07/13 05:18:40;;;;;;;10.13;3.72;;;;;;;19.18;100.00;100970.25;5074046;28;20028;-69
2022/07/13 05:21:05;;;;;;;8.25;3.65;;;;;;;19.20;100.00;100970.97;5072372;28;20032;-69
2022/07/13 05:23:31;;;;;;;6.60;3.10;;;;;;;19.23;100.00;100960.06;5059040;28;20029;-69
2022/07/13 05:25:57;;;;;;;7.57;3.72;;;;;;;19.26;100.00;100959.00;5062597;28;20033;-69
2022/07/13 05:28:23;;;;;;;6.43;3.63;;;;;;;19.44;100.00;100972.75;5037405;28;20812;-69
2022/07/13 05:30:48;;;;;;;6.95;3.28;;;;;;;19.46;100.00;100958.34;5040425;28;20032;-69
2022/07/13 05:33:18;;;;;;;5.90;2.72;;;;;;;19.51;100.00;100963.28;5028805;28;20088;-69
2022/07/13 05:35:44;;;;;;;5.70;2.90;;;;;;;19.67;100.00;100977.16;5034991;28;20139;-69
2022/07/13 05:38:09;;;;;;;6.13;2.53;;;;;;;19.61;100.00;100958.94;5036303;28;20141;-70
2022/07/13 05:40:35;;;;;;;4.05;2.60;;;;;;;19.84;100.00;100980.16;5041461;28;20506;-69
2022/07/13 05:43:00;;;;;;;11.35;3.30;;;;;;;20.00;100.00;100992.28;5038019;28;20300;-69
2022/07/13 05:45:25;;;;;;;5.40;2.55;;;;;;;20.02;100.00;100971.66;5023757;28;20090;-69
2022/07/13 05:47:51;;;;;;;5.75;2.58;;;;;;;20.18;100.00;100980.97;5047805;28;20043;-68
2022/07/13 05:50:16;;;;;;;4.80;2.75;;;;;;;20.34;100.00;100984.16;5052581;28;20847;-69
2022/07/13 05:52:42;;;;;;;6.18;2.47;;;;;;;20.45;100.00;100975.22;5056226;28;20028;-69
2022/07/13 05:55:09;;;;;;;9.25;3.20;;;;;;;20.50;100.00;100977.53;5053305;28;20033;-69
2022/07/13 05:57:35;;;;;;;7.18;2.55;;;;;;;20.34;100.00;100941.44;5064973;28;20085;-69
2022/07/13 06:00:01;;;;;;;3.47;2.10;;;;;;;20.50;100.00;100948.16;5078508;28;20566;-69
2022/07/13 06:02:26;;;;;;;8.13;2.78;;;;;;;20.78;100.00;100969.78;5070472;28;20036;-69
2022/07/13 06:04:51;;;;;;;4.93;2.40;;;;;;;20.95;100.00;100976.41;5051431;28;20028;-69
2022/07/13 06:07:17;;;;;;;4.97;2.58;;;;;;;21.16;100.00;100981.75;5069913;28;20165;-69
2022/07/13 06:09:42;;;;;;;13.27;2.72;;;;;;;21.20;100.00;100968.00;5064184;28;20120;-69
2022/07/13 06:12:07;;;;;;;3.78;2.20;;;;;;;21.28;100.00;100973.56;5070478;28;20028;-69
2022/07/13 06:14:33;;;;;;;6.20;2.30;;;;;;;21.42;100.00;100979.56;5064905;28;20032;-69
2022/07/13 06:16:58;;;;;;;4.72;2.05;;;;;;;21.55;100.00;100975.69;5070291;28;20051;-69
2022/07/13 06:19:24;;;;;;;5.15;1.98;;;;;;;21.61;100.00;100971.63;5057520;28;20037;-69
2022/07/13 06:21:49;;;;;;;6.03;2.33;;;;;;;21.71;100.00;100975.19;5070909;28;20040;-69
2022/07/13 06:24:15;;;;;;;3.38;2.00;;;;;;;21.83;100.00;100980.31;5052253;28;20464;-69
2022/07/13 06:26:40;;;;;;;4.85;2.38;;;;;;;21.91;100.00;100979.66;5066184;28;20502;-69
2022/07/13 06:29:05;;;;;;;4.90;2.30;;;;;;;21.99;100.00;100982.53;5064776;28;20040;-69
2022/07/13 06:31:31;;;;;;;8.43;2.65;;;;;;;22.00;100.00;100968.16;5054723;28;20082;-69
2022/07/13 06:33:56;;;;;;;4.35;2.42;;;;;;;22.00;100.00;100959.28;5042531;28;20468;-69
2022/07/13 06:36:22;;;;;;;4.25;2.17;;;;;;;22.13;100.00;100973.28;5048097;28;20445;-69
2022/07/13 06:38:48;;;;;;;5.13;2.78;;;;;;;22.15;100.00;100977.50;5056126;28;20817;-70
2022/07/13 06:41:13;;;;;;;5.90;2.53;;;;;;;22.00;100.00;100957.47;5066726;28;20476;-70
2022/07/13 06:43:39;;;;;;;4.55;2.55;;;;;;;22.13;100.00;100982.16;5068024;28;20060;-71
2022/07/13 06:46:04;;;;;;;8.02;2.30;;;;;;;22.14;100.00;100986.50;5065726;28;20039;-69
2022/07/13 06:48:30;;;;;;;4.10;2.40;;;;;;;22.14;100.00;100991.84;5062719;28;20894;-69
2022/07/13 06:50:55;;;;;;;8.68;2.30;;;;;;;22.07;100.00;100982.69;5049513;28;20527;-68
2022/07/13 06:53:21;;;;;;;8.95;2.90;;;;;;;22.01;100.00;100985.91;5051367;28;20082;-69
2022/07/13 06:55:46;;;;;;;6.50;2.78;;;;;;;21.82;100.00;100969.75;5046157;28;20082;-69
2022/07/13 06:58:12;;;;;;;7.30;2.70;;;;;;;21.82;100.00;100983.13;5059754;28;21721;-73
2022/07/13 07:00:37;;;;;;;9.43;3.15;;;;;;;21.74;100.00;100972.25;5063944;28;20115;-69
2022/07/13 07:03:03;;;;;;;7.20;2.67;;;;;;;21.88;100.00;100987.94;5062028;28;20085;-69
2022/07/13 07:05:28;;;;;;;8.82;3.08;;;;;;;21.71;100.00;100969.84;5064043;28;20495;-69
2022/07/13 07:07:53;;;;;;;8.18;3.60;;;;;;;21.81;100.00;100992.13;5061665;28;20028;-69
2022/07/13 07:10:19;;;;;;;13.25;3.50;;;;;;;21.64;100.00;100977.56;5058386;28;20124;-68
2022/07/13 07:12:44;;;;;;;6.35;2.90;;;;;;;21.53;100.00;100980.31;5065202;28;20620;-68
2022/07/13 07:15:10;;;;;;;13.32;2.60;;;;;;;21.42;100.00;100952.81;5045981;28;20029;-69
2022/07/13 07:17:48;;;;;;;8.23;3.00;;;;;;;21.53;100.00;100974.13;5054205;28;20056;-68
2022/07/13 07:20:14;;;;;;;5.45;2.92;;;;;;;21.73;100.00;100983.94;5043072;28;20854;-69
2022/07/13 07:22:40;;;;;;;7.35;3.38;;;;;;;21.66;100.00;100953.34;5050559;28;20040;-68
2022/07/13 07:25:07;;;;;;;7.55;2.78;;;;;;;22.13;100.00;100990.19;5054222;28;20566;-69
2022/07/13 07:27:33;;;;;;;5.85;2.50;;;;;;;22.16;100.00;100957.78;5054814;28;20443;-69
2022/07/13 07:29:58;;;;;;;9.88;2.35;;;;;;;22.54;100.00;100986.47;5045629;28;20114;-69
2022/07/13 07:32:24;;;;;;;4.93;2.80;;;;;;;22.68;100.00;100995.94;5046444;28;20028;-69
2022/07/13 07:34:49;;;;;;;5.03;2.17;;;;;;;22.73;100.00;100988.34;5044926;28;20040;-69
2022/07/13 07:37:15;;;;;;;5.30;2.40;;;;;;;22.80;100.00;100984.97;5055592;28;20036;-69
2022/07/13 07:39:41;;;;;;;5.10;2.90;;;;;;;22.86;100.00;100983.53;5055599;28;20898;-69
2022/07/13 07:42:06;;;;;;;4.85;2.40;;;;;;;22.88;100.00;100986.94;5060062;28;20040;-70
2022/07/13 07:44:32;;;;;;;3.95;2.20;;;;;;;22.97;100.00;100991.44;5048826;28;20082;-69
2022/07/13 07:46:58;;;;;;;4.05;2.00;;;;;;;23.11;100.00;100987.47;5045162;28;20466;-70
2022/07/13 07:49:24;;;;;;;5.65;2.28;;;;;;;23.35;100.00;100982.50;5042096;28;20764;-70
2022/07/13 07:51:49;;;;;;;5.60;2.92;;;;;;;23.54;100.00;100978.94;5045487;28;20033;-69
2022/07/13 07:54:14;;;;;;;5.10;2.65;;;;;;;23.63;100.00;100962.81;5032173;28;20036;-70
2022/07/13 07:56:40;;;;;;;4.13;1.90;;;;;;;23.76;100.00;100992.84;5061632;28;20593;-69
2022/07/13 07:59:05;;;;;;;4.15;2.08;;;;;;;23.70;100.00;100987.22;5080454;28;20032;-69
2022/07/13 08:01:30;;;;;;;4.55;2.55;;;;;;;23.65;100.00;100984.16;5062442;28;20032;-70
2022/07/13 08:03:56;;;;;;;4.90;2.42;;;;;;;23.64;100.00;100974.41;5072375;28;20920;-74
2022/07/13 08:06:21;;;;;;;3.85;2.50;;;;;;;23.86;100.00;100982.09;5062344;28;20036;-70
2022/07/13 08:08:47;;;;;;;4.70;2.28;;;;;;;23.98;100.00;100978.22;5073790;28;20081;-70
2022/07/13 08:11:16;;;;;;;4.57;2.00;;;;;;;24.12;100.00;100980.44;5076625;28;20545;-69
2022/07/13 08:13:42;;;;;;;5.65;2.33;;;;;;;24.18;100.00;100987.03;5076140;28;20060;-71
2022/07/13 08:16:08;;;;;;;5.78;2.53;;;;;;;24.20;99.62;100971.63;5064961;28;20025;-71
2022/07/13 08:18:33;;;;;;;4.38;2.03;;;;;;;24.04;99.54;100942.69;5053427;28;20040;-72
2022/07/13 08:20:58;;;;;;;6.70;1.95;;;;;;;24.17;99.50;100964.69;5061077;28;20028;-71
2022/07/13 08:26:08;;;;;;;4.50;2.00;;;;;;;24.55;99.65;100952.00;5047757;28;20063;-71
2022/07/13 08:28:33;;;;;;;8.25;3.22;;;;;;;24.75;99.75;100964.28;5044645;28;20029;-72
2022/07/13 08:30:58;;;;;;;7.28;2.85;;;;;;;24.97;95.98;100963.88;5060492;28;20090;-69
2022/07/13 08:38:52;;;;;;;7.90;2.45;;;;;;;25.27;93.18;100973.34;5058746;28;20497;-71
2022/07/13 08:41:17;;;;;;;6.30;2.30;;;;;;;25.14;91.98;100979.13;5047872;28;20029;-70
2022/07/13 08:43:42;;;;;;;3.45;2.22;;;;;;;25.09;91.16;100973.38;5061098;28;20036;-70
2022/07/13 08:46:08;;;;;;;4.45;2.10;;;;;;;25.13;93.68;100977.44;5039476;28;20029;-71
2022/07/13 08:48:37;;;;;;;6.78;2.15;;;;;;;25.27;92.71;100979.56;5055303;28;20024;-69
2022/07/13 08:51:04;;;;;;;5.22;2.03;;;;;;;25.47;96.48;100965.88;5040153;28;20029;-70
2022/07/13 08:53:29;;;;;;;5.47;2.30;;;;;;;25.70;93.55;100958.97;5060320;28;20483;-70
2022/07/13 08:55:56;;;;;;;5.60;2.50;;;;;;;25.87;89.70;100971.53;5061785;28;20032;-75
2022/07/13 08:58:22;;;;;;;6.68;2.40;;;;;;;25.88;88.11;100962.44;5082611;28;20056;-69
2022/07/13 09:00:48;;;;;;;4.72;2.03;;;;;;;25.95;86.87;100978.81;5048573;28;20570;-70
2022/07/13 09:03:14;;;;;;;4.32;2.13;;;;;;;25.93;85.52;100976.25;5048019;28;20033;-67
2022/07/13 09:05:40;;;;;;;5.38;2.35;;;;;;;25.94;86.69;100983.34;5052014;28;20043;-70
2022/07/13 09:08:07;;;;;;;6.55;2.35;;;;;;;25.91;87.94;100973.75;5046989;28;20039;-69
2022/07/13 09:10:36;;;;;;;9.95;2.55;;;;;;;25.88;88.76;100967.84;5049011;28;20044;-70
2022/07/13 09:13:02;;;;;;;5.10;2.22;;;;;;;25.98;88.00;100978.47;5070756;28;20136;-70
2022/07/13 09:15:27;;;;;;;8.93;2.25;;;;;;;25.97;89.46;100958.78;5047547;28;20483;-70
2022/07/13 09:17:53;;;;;;;3.85;1.85;;;;;;;26.13;90.27;100977.69;5051943;28;20112;-70
2022/07/13 09:20:20;;;;;;;6.82;2.20;;;;;;;26.10;89.01;100971.78;5049497;28;20059;-70
2022/07/13 09:22:52;;;;;;;7.60;2.03;;;;;;;26.16;89.15;100987.31;5045684;28;20029;-71
2022/07/13 09:25:32;;;;;;;5.25;2.38;;;;;;;26.02;89.22;100990.63;5052000;28;20036;-70
2022/07/13 09:28:05;;;;;;;8.77;2.22;;;;;;;25.92;90.84;100979.97;5035313;28;20783;-70
2022/07/13 09:30:31;;;;;;;5.18;2.33;;;;;;;25.98;89.37;100986.56;5045492;28;20781;-70
2022/07/13 09:32:58;;;;;;;4.13;1.73;;;;;;;26.02;91.16;100985.25;5050510;28;20032;-70
2022/07/13 09:35:45;;;;;;;10.23;2.85;;;;;;;26.18;89.79;100979.94;5026943;28;20138;-69
2022/07/13 09:38:28;;;;;;;5.43;2.22;;;;;;;26.26;89.14;100983.47;5052567;28;20117;-69
2022/07/13 09:40:54;;;;;;;5.95;2.28;;;;;;;26.32;85.74;100961.28;5055935;28;20032;-70
2022/07/13 09:46:09;;;;;;;8.10;2.38;;;;;;;26.53;84.05;100968.06;5052875;28;20818;-69
2022/07/13 09:48:38;;;;;;;5.70;2.03;;;;;;;26.29;83.34;100960.78;5084883;28;20028;-72
2022/07/13 09:51:05;;;;;;;6.45;2.10;;;;;;;26.28;86.75;100965.31;5064132;28;20038;-70
2022/07/13 09:53:33;;;;;;;5.72;2.13;;;;;;;26.26;87.21;100963.81;5071712;28;20032;-70
2022/07/13 09:56:03;;;;;;;5.07;2.22;;;;;;;26.28;88.00;100977.94;5086798;28;20482;-70
2022/07/13 09:58:31;;;;;;;5.63;2.10;;;;;;;26.41;92.00;100976.47;5066316;28;20041;-70
2022/07/13 10:00:58;;;;;;;4.93;1.77;;;;;;;26.64;88.33;100970.44;5056062;28;20040;-70
2022/07/13 10:03:24;;;;;;;4.90;2.38;;;;;;;26.80;86.34;100983.97;5053940;28;20568;-71
2022/07/13 10:05:51;;;;;;;6.80;2.45;;;;;;;26.84;84.77;100971.81;5042115;28;20068;-70
2022/07/13 10:08:18;;;;;;;5.47;2.45;;;;;;;26.83;88.14;100959.38;5049580;28;20036;-70
2022/07/13 10:10:44;;;;;;;14.43;2.45;;;;;;;26.96;85.86;100964.25;5037339;28;20044;-70
2022/07/13 10:13:10;;;;;;;6.88;2.70;;;;;;;27.08;85.24;100987.19;5040533;28;20063;-69
2022/07/13 10:15:36;;;;;;;7.18;1.90;;;;;;;27.05;85.57;100977.56;5073170;27;20389;-70
2022/07/13 10:18:02;;;;;;;4.55;2.20;;;;;;;26.84;82.51;100947.56;5041571;28;20883;-68
2022/07/13 10:20:28;;;;;;;4.90;2.22;;;;;;;27.01;83.03;100987.00;5050505;28;20082;-70
2022/07/13 10:22:53;;;;;;;6.72;2.42;;;;;;;26.98;83.37;100976.56;5047472;28;20060;-70
2022/07/13 10:25:19;;;;;;;4.45;2.13;;;;;;;26.90;82.63;100976.56;5044047;28;20093;-68
2022/07/13 10:27:45;;;;;;;4.70;2.25;;;;;;;26.99;82.22;100989.06;5042002;28;20040;-71
2022/07/13 10:30:30;;;;;;;5.68;2.03;;;;;;;27.09;81.72;100997.81;5030385;28;20139;-70
2022/07/13 10:33:18;;;;;;;6.07;1.80;;;;;;;27.17;82.93;100988.88;5041864;28;20902;-69
2022/07/13 10:35:48;;;;;;;4.38;2.05;;;;;;;27.24;81.65;100976.41;5053393;28;20063;-70
2022/07/13 10:38:14;;;;;;;4.05;1.98;;;;;;;27.39;83.11;100990.88;5055752;28;20028;-70
2022/07/13 10:40:40;;;;;;;6.55;2.20;;;;;;;27.29;81.54;100988.34;5053959;28;20040;-70
2022/07/13 10:43:05;;;;;;;6.57;1.90;;;;;;;27.35;81.63;100998.47;5055260;28;20903;-69
2022/07/13 10:45:40;;;;;;;3.88;1.85;;;;;;;27.50;79.87;100997.81;5057380;28;20811;-73
2022/07/13 10:48:32;;;;;;;3.70;1.90;;;;;;;27.45;81.32;100992.06;5072678;28;20491;-71
2022/07/13 10:51:01;;;;;;;3.22;1.80;;;;;;;27.39;80.74;100999.81;5050872;28;20063;-68
2022/07/13 10:53:39;;;;;;;6.53;1.70;;;;;;;27.48;82.17;100997.16;5057951;28;20221;-69
2022/07/13 10:56:15;;;;;;;7.25;2.17;;;;;;;27.60;80.41;100990.38;5050462;28;20024;-71
2022/07/13 10:58:42;;;;;;;7.72;1.92;;;;;;;27.72;82.40;100995.22;5065437;28;20029;-70
2022/07/13 11:01:33;;;;;;;7.35;2.10;;;;;;;27.88;80.36;100995.16;5059074;28;20047;-69
2022/07/13 11:03:59;;;;;;;4.25;2.35;;;;;;;27.90;81.38;100976.09;5059370;28;20036;-70
2022/07/13 11:06:24;;;;;;;6.10;2.88;;;;;;;28.19;82.05;100995.25;5050875;28;20783;-69
2022/07/13 11:09:15;;;;;;;12.15;3.97;;;;;;;28.48;79.90;100996.44;5051629;28;20738;-72
2022/07/13 11:11:48;;;;;;;8.45;3.38;;;;;;;28.61;78.08;100996.69;5053404;28;20028;-70
2022/07/13 11:14:40;;;;;;;9.70;3.55;;;;;;;28.75;80.84;100993.25;5064610;28;20028;-71
2022/07/13 11:17:19;;;;;;;6.53;2.60;;;;;;;28.94;80.50;100992.78;5056043;28;20044;-71
2022/07/13 11:19:51;;;;;;;6.32;2.30;;;;;;;29.14;77.59;100993.94;5058664;28;20111;-72
2022/07/13 11:22:17;;;;;;;5.65;2.45;;;;;;;29.04;75.72;100987.09;5074515;28;20035;-72
2022/07/13 11:25:15;;;;;;;4.45;2.30;;;;;;;28.93;76.23;100983.00;5050603;28;20403;-69
2022/07/13 11:28:06;;;;;;;7.47;2.30;;;;;;;29.14;77.22;100983.13;5060054;28;20477;-70